Relevés horaires Bouveret (Suisse)


Relevés horaires à Bouveret - Vendredi 25 Sept. 2015
Heure UTC1 Température [°C] Vent [km/h] Hum. [%] Pres.4 [hPa] Visi. [Km] Nébu. [octa] Préc.5 [mm] Cond.
2m. Res. Ros. Dir.2 Vit. Moy. Raf.3
23:00 12.9 12.9 9.7 SSE 5.6 9.3 11.1 81 1021(0.3/3h) -- -- -- --
22:00 13.1 13.1 9.8 S 5.6 7.4 13.0 80 1020.8(0.3/3h) -- -- -- --
21:00 16.0 16.0 9.7 NO 7.4 22.2 29.6 66 1020.4(0.8/3h) -- -- -- --
20:00 16.5 16.5 9.6 O 9.3 18.5 24.1 64 1020.1(0.9/3h) -- -- -- --
19:00 17.0 16.1 9.4 O 22.2 22.2 29.6 61 1019.8(1.0/3h) -- -- -- --
18:00 17.7 17.2 9.0 ONO 18.5 22.2 37.0 57 1019.3(0.3/3h) -- -- -- --
17:00 17.9 17.7 9.7 O 14.8 20.4 35.2 59 1018.9(-0.2/3h) -- -- -- --
16:00 18.2 17.7 9.1 O 20.4 22.2 35.2 55 1018.6(-0.6/3h) -- -- -- --
15:00 17.9 17.4 9.1 O 18.5 20.4 27.8 56 1018.9(-0.9/3h) -- -- -- --
14:00 17.8 17.3 9.5 O 18.5 20.4 27.8 58 1019.2(-1.2/3h) -- -- -- --
13:00 17.5 16.8 10.0 O 20.4 20.4 24.1 61 1019.3(-1.8/3h) -- -- -- --
12:00 14.7 14.7 8.9 N 5.6 7.4 13.0 68 1020.4(-1.5/3h) -- -- -- --
11:00 14.0 14.0 8.7 NNO 5.6 5.6 9.3 70 1021(-1.0/3h) -- -- -- --
10:00 13.2 13.2 7.9 O 5.6 5.6 9.3 70 1021.9(0.0/3h) -- -- -- --
09:00 12.5 12.4 7.2 O 5.6 7.4 13.0 70 1022.3(0.6/3h) -- -- -- --
08:00 11.4 11.2 6.8 SE 5.6 7.4 13.0 73 1022.5(1.1/3h) -- -- -- --
07:00 10.6 10.3 6.9 SE 5.6 7.4 11.1 78 1022.3(0.9/3h) -- -- -- --
06:00 9.4 8.4 6.6 SE 7.4 11.1 22.2 83 1022.2(0.6/3h) -- -- -- --
05:00 9.9 8.6 6.5 SE 9.3 11.1 22.2 79 1021.6(0.1/3h) -- -- -- --
04:00 10.0 9.6 6.9 ESE 5.6 9.3 14.8 81 1021.5(-0.2/3h) -- -- -- --
03:00 9.9 9 7.5 SE 7.4 11.1 20.4 85 1021.5(-0.5/3h) -- -- -- --
02:00 12.0 10.9 7.3 SSE 11.1 11.1 20.4 73 1021.2(-0.7/3h) -- -- -- --
01:00 11.7 10.5 7.3 SE 11.1 11.1 18.5 74 1021.4(-0.3/3h) -- -- -- --
00:00 11.0 10.3 8.0 SE 7.4 18.5 31.5 82 1021.9(0.1/3h) -- -- -- --

1 Coordinated Universal Time. Actuellement il est 05:00 locale et 03:00 UTC.

2 Le vent souffle depuis la direction indiquée vers la direction oposée.

3 Les rafales max. sont disponible 40 min après l'heure du relevé.

4 Pour les stations d'altitude (plus de 600m) le géopotentiel du niveau le plus proche de la pression obligatoire est indiqué.

5 Les stations disposant d'un diffuseur peuvent indiquer "trace". Cela signifie que des précipitations ont touchés le sol mais que la quantité est inférieure à 0.1 mm.

Copyright

Les données affichées sur cette page sont la propriété exclusive de Météo Suisse.

Récapitulatif de la journée
Température [°C] Vent [km/h] Ensoleillement4 [h] Precipitations totale5 [mm] Pression [Hpa]
Min1 Max.2 Moy.3 Max. Min Max.
9.7 18.6 13.7 37.0 0 h 0 min 0 1018.6 1022.5

1 Température minimale relevée entre 18:00 UTC la veille et 18:00 UTC le jour donné.

2 Température maximale relevée entre 06:00 UTC le jour donné et 06:00 UTC le lendemain.

3 Vent moyen de la journée basé sur les relevés horaires.

4 Ensoleillement en heures relevé entre 06:00 UTC la veille et 06:00 UTC le jour donné.

5 Précipitations totales tombées entre 06:00 UTC la jour donné et 06:00 UTC le lendemain.

Graphiques horaires